Time;durP1;ratioP1;P1;durP2;ratioP2;P2;SDS_P1;SDS_P2;PMS_P1;PMS_P2;Temp;Humidity;BMP_temperature;BMP_pressure;BME280_temperature;BME280_humidity;BME280_pressure;Samples;Min_cycle;Max_cycle;Signal;HPM_P1;HPM_P2
2022/01/21 00:01:52;;;;;;;;;;;;;;;3.79;100.00;103462.91;5073093;28;19930;-40
2022/01/21 00:04:20;;;;;;;;;;;;;;;3.79;100.00;103464.81;5080262;28;19931;-36
2022/01/21 00:06:47;;;;;;;;;;;;;;;3.78;100.00;103463.09;5081829;28;19920;-40
2022/01/21 00:09:15;;;;;;;;;;;;;;;3.79;100.00;103467.56;5077950;28;20277;-36
2022/01/21 00:11:45;;;;;;;;;;;;;;;3.84;100.00;103469.72;5081565;28;19989;-35
2022/01/21 00:14:14;;;;;;;;;;;;;;;3.88;100.00;103473.81;5078375;28;19943;-37
2022/01/21 00:16:41;;;;;;;;;;;;;;;3.94;100.00;103473.06;5083300;28;19920;-35
2022/01/21 00:19:12;;;;;;;;;;;;;;;3.99;100.00;103476.13;5084881;28;20014;-36
2022/01/21 00:30:12;;;;;;;;;;;;;;;3.91;100.00;103482.59;5078328;28;20014;-36
2022/01/21 00:32:41;;;;;;;;;;;;;;;3.87;100.00;103488.69;5063496;28;20006;-40
2022/01/21 00:35:10;;;;;;;;;;;;;;;3.83;100.00;103485.44;5088355;28;19920;-34
2022/01/21 00:37:38;;;;;;;;;;;;;;;3.83;100.00;103492.88;5082674;28;19935;-37
2022/01/21 00:40:07;;;;;;;;;;;;;;;3.81;100.00;103485.63;5085718;28;19923;-37
2022/01/21 00:42:51;;;;;;;;;;;;;;;3.83;100.00;103498.38;5088981;28;19920;-39
2022/01/21 00:45:21;;;;;;;;;;;;;;;3.85;100.00;103494.41;5060059;28;20271;-37
2022/01/21 00:47:48;;;;;;;;;;;;;;;3.85;100.00;103482.50;5062909;28;19946;-36
2022/01/21 00:50:16;;;;;;;;;;;;;;;3.86;100.00;103481.44;5078222;28;20316;-35
2022/01/21 00:52:44;;;;;;;;;;;;;;;3.84;100.00;103480.78;5079613;28;19927;-37
2022/01/21 00:55:11;;;;;;;;;;;;;;;3.84;100.00;103487.16;5080888;28;19967;-31
2022/01/21 00:57:39;;;;;;;;;;;;;;;3.82;100.00;103480.97;5077217;28;20289;-33
2022/01/21 01:00:08;;;;;;;;;;;;;;;3.83;100.00;103474.38;5083062;28;20003;-34
2022/01/21 01:02:38;;;;;;;;;;;;;;;3.84;100.00;103470.59;5076131;28;19927;-37
2022/01/21 01:05:07;;;;;;;;;;;;;;;3.84;100.00;103473.34;5057417;28;19924;-35
2022/01/21 01:07:34;;;;;;;;;;;;;;;3.83;100.00;103471.63;5075238;28;20361;-34
2022/01/21 01:10:04;;;;;;;;;;;;;;;3.79;100.00;103470.31;5083875;28;20019;-35
2022/01/21 01:12:47;;;;;;;;;;;;;;;3.76;100.00;103466.03;5075177;28;19991;-35
2022/01/21 01:20:46;;;;;;;;;;;;;;;3.68;100.00;103470.78;5075689;28;20007;-36
2022/01/21 01:23:26;;;;;;;;;;;;;;;3.68;100.00;103493.72;5061579;28;19920;-30
2022/01/21 01:28:39;;;;;;;;;;;;;;;3.70;100.00;103486.13;5077426;28;20388;-35
2022/01/21 01:31:07;;;;;;;;;;;;;;;3.68;100.00;103468.88;5083306;28;19935;-34
2022/01/21 01:33:39;;;;;;;;;;;;;;;3.64;100.00;103474.97;5075341;28;19924;-32
2022/01/21 01:36:07;;;;;;;;;;;;;;;3.58;100.00;103476.59;5057721;28;19927;-39
2022/01/21 01:39:04;;;;;;;;;;;;;;;3.53;100.00;103476.28;5057675;28;19921;-40
2022/01/21 01:41:36;;;;;;;;;;;;;;;3.45;100.00;103488.25;5075855;28;19921;-36
2022/01/21 01:49:38;;;;;;;;;;;;;;;3.30;100.00;103489.28;5068180;28;19920;-41
2022/01/21 01:52:07;;;;;;;;;;;;;;;3.28;100.00;103492.22;5053527;28;19927;-42
2022/01/21 01:54:35;;;;;;;;;;;;;;;3.26;100.00;103482.41;5076850;28;19921;-37
2022/01/21 01:57:04;;;;;;;;;;;;;;;3.24;100.00;103490.88;5073394;28;19931;-43
2022/01/21 01:59:32;;;;;;;;;;;;;;;3.26;100.00;103480.50;5086985;28;19926;-35
2022/01/21 02:02:01;;;;;;;;;;;;;;;3.29;100.00;103471.88;5077638;28;19924;-37
2022/01/21 02:04:30;;;;;;;;;;;;;;;3.31;100.00;103467.03;5087040;28;19920;-31
2022/01/21 02:06:59;;;;;;;;;;;;;;;3.33;100.00;103477.88;5077986;28;19927;-36
2022/01/21 02:09:28;;;;;;;;;;;;;;;3.33;100.00;103477.88;5067973;28;20000;-31
2022/01/21 02:11:56;;;;;;;;;;;;;;;3.34;100.00;103482.34;5059598;28;19920;-31
2022/01/21 02:14:28;;;;;;;;;;;;;;;3.33;100.00;103473.22;5085788;28;20360;-32
2022/01/21 02:17:13;;;;;;;;;;;;;;;3.32;100.00;103476.16;5078023;28;19931;-35
2022/01/21 02:22:32;;;;;;;;;;;;;;;3.30;100.00;103484.63;5076920;28;19923;-37
2022/01/21 02:25:15;;;;;;;;;;;;;;;3.30;100.00;103484.63;5086710;28;20381;-33
2022/01/21 02:27:43;;;;;;;;;;;;;;;3.30;100.00;103481.00;5073196;28;19926;-37
2022/01/21 02:30:18;;;;;;;;;;;;;;;3.30;100.00;103470.81;5067744;28;19931;-34
2022/01/21 02:32:48;;;;;;;;;;;;;;;3.31;100.00;103477.19;5059696;28;19920;-39
2022/01/21 02:35:17;;;;;;;;;;;;;;;3.31;100.00;103466.16;5067547;28;19920;-35
2022/01/21 02:37:46;;;;;;;;;;;;;;;3.31;100.00;103467.03;5060769;28;19931;-38
2022/01/21 02:40:14;;;;;;;;;;;;;;;3.31;100.00;103460.66;5076782;28;19920;-36
2022/01/21 02:42:42;;;;;;;;;;;;;;;3.30;100.00;103453.41;5080506;28;19924;-33
2022/01/21 02:45:13;;;;;;;;;;;;;;;3.29;100.00;103446.16;5071946;28;19962;-32
2022/01/21 02:47:41;;;;;;;;;;;;;;;3.28;100.00;103441.69;5064420;28;19927;-33
2022/01/21 02:50:10;;;;;;;;;;;;;;;3.29;100.00;103435.13;5070964;28;19934;-37
2022/01/21 02:52:52;;;;;;;;;;;;;;;3.30;100.00;103434.09;5066223;28;20369;-38
2022/01/21 02:55:21;;;;;;;;;;;;;;;3.32;100.00;103435.63;5071915;28;19932;-31
2022/01/21 02:57:49;;;;;;;;;;;;;;;3.38;100.00;103443.16;5065151;28;20019;-37
2022/01/21 03:00:17;;;;;;;;;;;;;;;3.44;100.00;103447.91;5086764;28;19920;-32
2022/01/21 03:02:45;;;;;;;;;;;;;;;3.53;100.00;103459.72;5066859;28;20285;-35
2022/01/21 03:05:15;;;;;;;;;;;;;;;3.59;100.00;103450.69;5071481;28;19920;-38
2022/01/21 03:07:43;;;;;;;;;;;;;;;3.60;100.00;103457.06;5068376;28;19920;-38
2022/01/21 03:10:12;;;;;;;;;;;;;;;3.61;100.00;103458.75;5069740;28;20417;-35
2022/01/21 03:12:41;;;;;;;;;;;;;;;3.60;100.00;103459.81;5069237;28;19978;-33
2022/01/21 03:15:08;;;;;;;;;;;;;;;3.60;100.00;103457.91;5086233;28;19930;-33
2022/01/21 03:17:36;;;;;;;;;;;;;;;3.62;100.00;103458.56;5088462;28;20027;-35
2022/01/21 03:20:04;;;;;;;;;;;;;;;3.64;100.00;103463.91;5085507;28;19920;-34
2022/01/21 03:22:32;;;;;;;;;;;;;;;3.64;100.00;103464.78;5087168;28;19927;-38
2022/01/21 03:25:00;;;;;;;;;;;;;;;3.64;100.00;103469.44;5070685;28;19961;-36
2022/01/21 03:27:28;;;;;;;;;;;;;;;3.62;100.00;103464.09;5070713;28;20436;-32
2022/01/21 03:29:57;;;;;;;;;;;;;;;3.62;100.00;103460.47;5071978;28;19926;-39
2022/01/21 03:32:30;;;;;;;;;;;;;;;3.61;100.00;103459.63;5070299;28;20040;-33
2022/01/21 03:34:57;;;;;;;;;;;;;;;3.61;100.00;103459.63;5080376;28;19963;-30
2022/01/21 03:37:25;;;;;;;;;;;;;;;3.62;100.00;103471.53;5088973;28;19927;-31
2022/01/21 03:39:53;;;;;;;;;;;;;;;3.63;100.00;103467.72;5061229;28;19974;-39
2022/01/21 03:42:20;;;;;;;;;;;;;;;3.64;100.00;103475.81;5070976;28;19923;-42
2022/01/21 03:44:48;;;;;;;;;;;;;;;3.68;100.00;103477.16;5061888;28;19927;-38
2022/01/21 03:47:17;;;;;;;;;;;;;;;3.73;100.00;103480.22;5074595;28;19927;-37
2022/01/21 03:49:53;;;;;;;;;;;;;;;3.79;100.00;103475.84;5061836;28;19966;-36
2022/01/21 03:52:21;;;;;;;;;;;;;;;3.83;100.00;103474.38;5060004;28;19928;-37
2022/01/21 03:54:48;;;;;;;;;;;;;;;3.85;100.00;103485.25;5063370;28;20028;-35
2022/01/21 03:57:16;;;;;;;;;;;;;;;3.85;100.00;103486.13;5070720;28;20289;-41
2022/01/21 03:59:43;;;;;;;;;;;;;;;3.83;100.00;103481.81;5064887;28;19921;-39
2022/01/21 04:02:11;;;;;;;;;;;;;;;3.81;100.00;103479.25;5072039;28;20335;-34
2022/01/21 04:04:40;;;;;;;;;;;;;;;3.79;100.00;103485.00;5066711;28;19976;-35
2022/01/21 04:07:08;;;;;;;;;;;;;;;3.77;100.00;103477.94;5085635;28;20011;-36
2022/01/21 04:09:41;;;;;;;;;;;;;;;3.77;100.00;103486.22;5067990;28;19967;-38
2022/01/21 04:12:09;;;;;;;;;;;;;;;3.77;100.00;103483.47;5086258;28;20293;-39
2022/01/21 04:14:37;;;;;;;;;;;;;;;3.74;100.00;103484.69;5064939;28;19928;-39
2022/01/21 04:17:06;;;;;;;;;;;;;;;3.72;100.00;103483.16;5067654;28;20003;-41
2022/01/21 04:19:34;;;;;;;;;;;;;;;3.70;100.00;103480.59;5067529;28;20343;-31
2022/01/21 04:22:05;;;;;;;;;;;;;;;3.68;100.00;103473.53;5069852;28;19950;-35
2022/01/21 04:24:32;;;;;;;;;;;;;;;3.65;100.00;103477.53;5066080;28;20311;-31
2022/01/21 04:27:00;;;;;;;;;;;;;;;3.66;100.00;103470.97;5063433;28;19927;-35
2022/01/21 04:29:28;;;;;;;;;;;;;;;3.67;100.00;103474.59;5069421;28;20011;-35
2022/01/21 04:31:59;;;;;;;;;;;;;;;3.71;100.00;103471.25;5058577;28;19928;-34
2022/01/21 04:34:32;;;;;;;;;;;;;;;3.77;100.00;103476.03;5059074;28;19920;-36
2022/01/21 04:37:01;;;;;;;;;;;;;;;3.82;100.00;103475.44;5066851;28;19924;-31
2022/01/21 04:39:47;;;;;;;;;;;;;;;3.85;100.00;103479.72;5058762;28;19926;-35
2022/01/21 04:47:45;;;;;;;;;;;;;;;3.89;100.00;103481.94;5064900;28;19924;-35
2022/01/21 04:50:15;;;;;;;;;;;;;;;3.92;100.00;103491.75;5057918;28;19924;-31
2022/01/21 04:52:48;;;;;;;;;;;;;;;3.96;100.00;103479.28;5065476;28;19999;-39
2022/01/21 04:55:31;;;;;;;;;;;;;;;3.98;100.00;103472.50;5077501;28;19956;-32
2022/01/21 04:57:58;;;;;;;;;;;;;;;3.99;100.00;103481.66;5065035;28;19927;-32
2022/01/21 05:00:26;;;;;;;;;;;;;;;4.00;100.00;103483.34;5074674;28;20288;-33
2022/01/21 05:02:54;;;;;;;;;;;;;;;3.97;100.00;103476.31;5067109;28;19920;-34
2022/01/21 05:05:23;;;;;;;;;;;;;;;3.95;100.00;103478.41;5057129;28;20397;-31
2022/01/21 05:07:52;;;;;;;;;;;;;;;3.92;100.00;103473.25;5067158;28;19921;-37
2022/01/21 05:10:19;;;;;;;;;;;;;;;3.92;100.00;103486.22;5065216;28;19928;-35
2022/01/21 05:12:48;;;;;;;;;;;;;;;3.88;100.00;103482.97;5066650;28;19927;-33
2022/01/21 05:15:22;;;;;;;;;;;;;;;3.86;100.00;103485.06;5067544;28;19921;-35
2022/01/21 05:17:50;;;;;;;;;;;;;;;3.87;100.00;103497.84;5066467;28;19966;-35
2022/01/21 05:20:28;;;;;;;;;;;;;;;3.90;100.00;103485.53;5067676;28;19924;-36
2022/01/21 05:23:07;;;;;;;;;;;;;;;3.92;100.00;103492.59;5067055;28;19978;-37
2022/01/21 05:25:35;;;;;;;;;;;;;;;3.95;100.00;103494.13;5075049;28;19966;-40
2022/01/21 05:28:05;;;;;;;;;;;;;;;3.96;100.00;103501.38;5072239;28;20840;-38
2022/01/21 05:30:43;;;;;;;;;;;;;;;3.96;100.00;103490.31;5059323;28;19920;-35
2022/01/21 05:33:17;;;;;;;;;;;;;;;3.94;100.00;103486.88;5059997;28;19920;-33
2022/01/21 05:36:03;;;;;;;;;;;;;;;3.90;100.00;103480.88;5078604;28;19927;-32
2022/01/21 05:38:54;;;;;;;;;;;;;;;3.88;100.00;103479.34;5068931;28;19931;-38
2022/01/21 05:41:35;;;;;;;;;;;;;;;3.85;100.00;103482.50;5069044;28;19966;-35
2022/01/21 05:47:23;;;;;;;;;;;;;;;3.79;100.00;103481.38;5077578;28;20450;-36
2022/01/21 05:49:59;;;;;;;;;;;;;;;3.78;100.00;103486.03;5080893;28;20443;-37
2022/01/21 05:52:42;;;;;;;;;;;;;;;3.75;100.00;103483.66;5060183;28;19974;-37
2022/01/21 05:55:36;;;;;;;;;;;;;;;3.75;100.00;103489.16;5059801;28;20381;-33
2022/01/21 05:58:14;;;;;;;;;;;;;;;3.75;100.00;103491.94;5083027;28;20270;-34
2022/01/21 06:00:47;;;;;;;;;;;;;;;3.77;100.00;103497.28;5067562;28;19952;-37
2022/01/21 06:03:16;;;;;;;;;;;;;;;3.79;100.00;103500.69;5080801;28;20269;-33
2022/01/21 06:05:44;;;;;;;;;;;;;;;3.81;100.00;103493.06;5060533;28;20011;-36
2022/01/21 06:08:12;;;;;;;;;;;;;;;3.84;100.00;103484.41;5061284;28;20385;-35
2022/01/21 06:10:39;;;;;;;;;;;;;;;3.89;100.00;103494.88;5062901;28;19920;-33
2022/01/21 06:13:07;;;;;;;;;;;;;;;3.95;100.00;103488.59;5078816;28;19932;-39
2022/01/21 06:15:35;;;;;;;;;;;;;;;4.01;100.00;103491.44;5067671;28;19927;-34
2022/01/21 06:18:04;;;;;;;;;;;;;;;4.10;100.00;103483.91;5079147;28;19924;-34
2022/01/21 06:20:31;;;;;;;;;;;;;;;4.19;100.00;103477.25;5087434;28;20374;-42
2022/01/21 06:22:59;;;;;;;;;;;;;;;4.27;100.00;103473.50;5079253;28;19920;-34
2022/01/21 06:25:26;;;;;;;;;;;;;;;4.33;100.00;103479.13;5088267;28;19931;-31
2022/01/21 06:27:54;;;;;;;;;;;;;;;4.40;100.00;103469.00;5067986;28;20420;-31
2022/01/21 06:30:21;;;;;;;;;;;;;;;4.46;100.00;103478.41;5088427;28;20393;-38
2022/01/21 06:32:49;;;;;;;;;;;;;;;4.50;100.00;103474.22;5078621;28;20263;-38
2022/01/21 06:35:18;;;;;;;;;;;;;;;4.56;100.00;103478.97;5086384;28;19920;-35
2022/01/21 06:37:45;;;;;;;;;;;;;;;4.59;100.00;103480.50;5079472;28;20345;-35
2022/01/21 06:40:15;;;;;;;;;;;;;;;4.61;100.00;103492.19;5084784;28;19931;-35
2022/01/21 06:42:42;;;;;;;;;;;;;;;4.61;100.00;103494.97;5080452;28;19959;-34
2022/01/21 06:45:10;;;;;;;;;;;;;;;4.62;100.00;103486.47;5084212;28;19927;-31
2022/01/21 06:47:38;;;;;;;;;;;;;;;4.65;100.00;103493.53;5080938;28;19944;-31
2022/01/21 06:50:06;;;;;;;;;;;;;;;4.69;100.00;103497.63;5082530;28;19920;-38
2022/01/21 06:52:35;;;;;;;;;;;;;;;4.71;100.00;103484.47;5080026;28;19927;-31
2022/01/21 06:55:03;;;;;;;;;;;;;;;4.74;100.00;103473.00;5082989;28;20364;-36
2022/01/21 06:57:31;;;;;;;;;;;;;;;4.74;100.00;103468.34;5080458;28;19920;-32
2022/01/21 06:59:58;;;;;;;;;;;;;;;4.76;100.00;103487.50;5086506;28;19956;-37
2022/01/21 07:02:26;;;;;;;;;;;;;;;4.75;100.00;103483.88;5084854;28;20316;-33
2022/01/21 07:04:53;;;;;;;;;;;;;;;4.74;100.00;103484.94;5087752;28;19935;-34
2022/01/21 07:07:22;;;;;;;;;;;;;;;4.74;100.00;103478.53;5082773;28;20369;-36
2022/01/21 07:09:50;;;;;;;;;;;;;;;4.74;100.00;103479.41;5088854;28;20354;-34
2022/01/21 07:12:18;;;;;;;;;;;;;;;4.75;100.00;103475.56;5077950;28;19954;-35
2022/01/21 07:14:45;;;;;;;;;;;;;;;4.76;100.00;103484.72;5077683;28;19920;-36
2022/01/21 07:17:13;;;;;;;;;;;;;;;4.76;100.00;103484.72;5086083;28;20381;-41
2022/01/21 07:19:40;;;;;;;;;;;;;;;4.79;100.00;103487.13;5077958;28;19920;-37
2022/01/21 07:22:08;;;;;;;;;;;;;;;4.82;100.00;103487.56;5072628;28;20258;-35
2022/01/21 07:24:35;;;;;;;;;;;;;;;4.86;100.00;103485.25;5077057;28;19927;-37
2022/01/21 07:27:05;;;;;;;;;;;;;;;4.91;100.00;103485.53;5086648;28;19931;-35
2022/01/21 07:29:32;;;;;;;;;;;;;;;4.94;100.00;103485.13;5077929;28;19931;-38
2022/01/21 07:32:00;;;;;;;;;;;;;;;4.97;100.00;103498.59;5082369;28;19934;-32
2022/01/21 07:34:27;;;;;;;;;;;;;;;5.00;100.00;103495.38;5078233;28;20384;-37
2022/01/21 07:36:55;;;;;;;;;;;;;;;5.04;100.00;103496.72;5081644;28;19931;-35
2022/01/21 07:39:23;;;;;;;;;;;;;;;5.07;100.00;103488.03;5077452;28;20254;-32
2022/01/21 07:41:51;;;;;;;;;;;;;;;5.10;100.00;103495.94;5080853;28;20262;-32
2022/01/21 07:44:20;;;;;;;;;;;;;;;5.13;100.00;103492.78;5077432;28;20340;-35
2022/01/21 07:46:47;;;;;;;;;;;;;;;5.16;100.00;103499.81;5079678;28;19919;-38
2022/01/21 07:49:16;;;;;;;;;;;;;;;5.20;100.00;103504.75;5078664;28;19924;-33
2022/01/21 07:51:44;;;;;;;;;;;;;;;5.25;100.00;103506.06;5085519;28;19925;-30
2022/01/21 07:54:11;;;;;;;;;;;;;;;5.29;100.00;103499.09;5068994;28;19920;-34
2022/01/21 07:56:39;;;;;;;;;;;;;;;5.32;100.00;103491.22;5084433;28;20299;-34
2022/01/21 07:59:08;;;;;;;;;;;;;;;5.34;100.00;103497.44;5080336;28;19924;-38
2022/01/21 08:01:37;;;;;;;;;;;;;;;5.35;100.00;103495.53;5087127;28;19924;-32
2022/01/21 08:04:05;;;;;;;;;;;;;;;5.37;100.00;103507.25;5079254;28;19928;-36
2022/01/21 08:06:33;;;;;;;;;;;;;;;5.39;100.00;103499.59;5086526;28;19930;-31
2022/01/21 08:09:01;;;;;;;;;;;;;;;5.41;100.00;103501.09;5078288;28;19924;-32
2022/01/21 08:11:29;;;;;;;;;;;;;;;5.43;100.00;103498.97;5087519;28;20337;-38
2022/01/21 08:13:56;;;;;;;;;;;;;;;5.47;100.00;103503.06;5077607;28;19920;-36
2022/01/21 08:16:24;;;;;;;;;;;;;;;5.49;100.00;103505.66;5087198;28;19931;-35
2022/01/21 08:18:54;;;;;;;;;;;;;;;5.52;100.00;103508.88;5091757;28;19950;-35
2022/01/21 08:21:21;;;;;;;;;;;;;;;5.55;100.00;103502.09;5086605;28;20480;-35
2022/01/21 08:23:50;;;;;;;;;;;;;;;5.56;100.00;103501.03;5079980;28;19923;-34
2022/01/21 08:26:22;;;;;;;;;;;;;;;5.59;100.00;103500.63;5086066;28;19927;-33
2022/01/21 08:28:51;;;;;;;;;;;;;;;5.62;100.00;103504.88;5080370;28;19920;-36
2022/01/21 08:31:18;;;;;;;;;;;;;;;5.65;100.00;103505.34;5082160;28;19943;-32
2022/01/21 08:33:46;;;;;;;;;;;;;;;5.68;100.00;103504.09;5081473;28;19998;-34
2022/01/21 08:36:15;;;;;;;;;;;;;;;5.71;100.00;103499.00;5068234;28;19931;-39
2022/01/21 08:38:42;;;;;;;;;;;;;;;5.75;100.00;103494.78;5082511;28;19925;-40
2022/01/21 08:41:10;;;;;;;;;;;;;;;5.78;100.00;103499.91;5083931;28;19924;-33
2022/01/21 08:43:37;;;;;;;;;;;;;;;5.83;100.00;103507.59;5082349;28;19924;-37
2022/01/21 08:46:06;;;;;;;;;;;;;;;5.86;100.00;103508.03;5083511;28;19959;-35
2022/01/21 08:48:34;;;;;;;;;;;;;;;5.92;100.00;103511.09;5078880;28;20359;-33
2022/01/21 08:51:08;;;;;;;;;;;;;;;5.94;100.00;103509.84;5080365;28;19920;-34
2022/01/21 08:53:38;;;;;;;;;;;;;;;5.98;100.00;103521.38;5077709;28;19931;-35
2022/01/21 08:56:07;;;;;;;;;;;;;;;5.99;100.00;103514.78;5080136;28;20285;-30
2022/01/21 08:58:34;;;;;;;;;;;;;;;6.01;100.00;103510.72;5075956;28;19928;-37
2022/01/21 09:01:03;;;;;;;;;;;;;;;6.05;100.00;103512.03;5082637;28;19995;-38
2022/01/21 09:03:31;;;;;;;;;;;;;;;6.10;100.00;103505.88;5074206;28;19960;-35
2022/01/21 09:05:58;;;;;;;;;;;;;;;6.13;100.00;103511.88;5084297;28;19924;-36
2022/01/21 09:08:29;;;;;;;;;;;;;;;6.18;100.00;103508.50;5074632;28;20360;-36
2022/01/21 09:11:00;;;;;;;;;;;;;;;6.25;100.00;103514.91;5083329;28;20324;-32
2022/01/21 09:13:30;;;;;;;;;;;;;;;6.41;100.00;103503.47;5074830;28;19986;-37
2022/01/21 09:16:00;;;;;;;;;;;;;;;6.61;100.00;103500.78;5083784;28;19920;-32
2022/01/21 09:18:33;;;;;;;;;;;;;;;6.74;100.00;103499.97;5073647;28;20007;-29
2022/01/21 09:21:23;;;;;;;;;;;;;;;6.78;100.00;103512.38;5083869;28;19978;-35
2022/01/21 09:23:51;;;;;;;;;;;;;;;6.78;100.00;103523.47;5073871;28;19936;-31
2022/01/21 09:26:21;;;;;;;;;;;;;;;6.77;100.00;103522.63;5085953;28;20242;-30
2022/01/21 09:28:52;;;;;;;;;;;;;;;6.77;100.00;103522.63;5074555;28;19969;-32
2022/01/21 09:31:20;;;;;;;;;;;;;;;6.77;100.00;103527.31;5080653;28;19938;-35
2022/01/21 09:33:48;;;;;;;;;;;;;;;6.78;100.00;103529.88;5074423;28;19964;-37
2022/01/21 09:36:18;;;;;;;;;;;;;;;6.79;100.00;103525.19;5082572;28;19931;-36
2022/01/21 09:38:46;;;;;;;;;;;;;;;6.78;100.00;103524.34;5074692;28;19939;-38
2022/01/21 09:41:15;;;;;;;;;;;;;;;6.76;100.00;103518.13;5080815;28;20379;-34
2022/01/21 09:43:47;;;;;;;;;;;;;;;6.75;100.00;103510.00;5076421;28;19943;-35
2022/01/21 09:46:15;;;;;;;;;;;;;;;6.74;100.00;103505.53;5070726;28;19923;-34
2022/01/21 09:48:50;;;;;;;;;;;;;;;6.74;100.00;103499.97;5080066;28;19920;-39
2022/01/21 09:51:18;;;;;;;;;;;;;;;6.74;100.00;103508.31;5083034;28;19920;-36
2022/01/21 09:53:46;;;;;;;;;;;;;;;6.74;100.00;103505.53;5080926;28;19936;-39
2022/01/21 09:56:16;;;;;;;;;;;;;;;6.74;100.00;103513.84;5082847;28;19934;-39
2022/01/21 09:58:45;;;;;;;;;;;;;;;6.73;100.00;103507.44;5079193;28;19979;-31
2022/01/21 10:01:14;;;;;;;;;;;;;;;6.72;100.00;103496.56;5083012;28;19924;-32
2022/01/21 10:03:43;;;;;;;;;;;;;;;6.72;100.00;103504.88;5081348;28;20404;-35
2022/01/21 10:06:12;;;;;;;;;;;;;;;6.74;100.00;103516.63;5088415;28;19928;-37
2022/01/21 10:08:41;;;;;;;;;;;;;;;6.81;100.00;103517.47;5085249;28;19926;-33
2022/01/21 10:11:09;;;;;;;;;;;;;;;6.87;100.00;103516.66;5087136;28;19924;-33
2022/01/21 10:13:37;;;;;;;;;;;;;;;6.91;100.00;103513.25;5082340;28;20284;-42
2022/01/21 10:16:06;;;;;;;;;;;;;;;6.91;100.00;103506.84;5089109;28;20301;-34
2022/01/21 10:18:38;;;;;;;;;;;;;;;6.90;100.00;103516.25;5082631;28;19958;-36
2022/01/21 10:21:07;;;;;;;;;;;;;;;6.85;100.00;103508.53;5088388;28;20551;-40
2022/01/21 10:23:36;;;;;;;;;;;;;;;6.80;100.00;103511.06;5081705;28;20316;-33
2022/01/21 10:26:05;;;;;;;;;;;;;;;6.74;100.00;103513.84;5090631;28;19931;-39
2022/01/21 10:28:33;;;;;;;;;;;;;;;6.73;100.00;103524.09;5080375;28;19931;-39
2022/01/21 10:31:05;;;;;;;;;;;;;;;6.71;100.00;103505.94;5090544;28;19924;-35
2022/01/21 10:33:37;;;;;;;;;;;;;;;6.74;100.00;103506.38;5080155;28;19920;-35
2022/01/21 10:36:10;;;;;;;;;;;;;;;6.81;100.00;103518.34;5089777;28;19935;-38
2022/01/21 10:38:42;;;;;;;;;;;;;;;6.86;100.00;103521.34;5076304;28;19927;-37
2022/01/21 10:41:11;;;;;;;;;;;;;;;6.97;100.00;103535.69;5087366;28;19924;-37
2022/01/21 10:43:38;;;;;;;;;;;;;;;7.10;100.00;103535.72;5087680;28;19926;-33
2022/01/21 10:46:06;;;;;;;;;;;;;;;7.23;100.00;103544.91;5078773;28;19920;-36
2022/01/21 10:48:54;;;;;;;;;;;;;;;7.36;100.00;103543.25;5082451;28;19966;-33
2022/01/21 10:51:25;;;;;;;;;;;;;;;7.44;100.00;103543.00;5079134;28;19931;-33
2022/01/21 10:53:53;;;;;;;;;;;;;;;7.46;100.00;103538.09;5081670;28;19927;-32
2022/01/21 10:56:20;;;;;;;;;;;;;;;7.42;100.00;103543.22;5086710;28;19971;-28
2022/01/21 10:58:50;;;;;;;;;;;;;;;7.39;100.00;103531.72;5083375;28;20285;-35
2022/01/21 11:01:21;;;;;;;;;;;;;;;7.35;100.00;103527.66;5086473;28;19921;-37
2022/01/21 11:03:56;;;;;;;;;;;;;;;7.26;100.00;103527.84;5083612;28;19924;-35
2022/01/21 11:06:28;;;;;;;;;;;;;;;7.20;100.00;103525.03;5089399;28;19919;-37
2022/01/21 11:09:15;;;;;;;;;;;;;;;7.25;100.00;103525.25;5082889;28;19986;-34
2022/01/21 11:11:44;;;;;;;;;;;;;;;7.47;100.00;103523.16;5089656;28;19921;-32
2022/01/21 11:14:13;;;;;;;;;;;;;;;7.63;100.00;103531.06;5084245;28;19921;-39
2022/01/21 11:16:44;;;;;;;;;;;;;;;7.76;100.00;103521.88;5085733;28;19921;-37
2022/01/21 11:19:34;;;;;;;;;;;;;;;7.87;100.00;103522.06;5084735;28;19927;-38
2022/01/21 11:22:04;;;;;;;;;;;;;;;8.04;100.00;103519.66;5087258;28;19966;-36
2022/01/21 11:24:32;;;;;;;;;;;;;;;8.14;100.00;103519.22;5083813;28;19920;-31
2022/01/21 11:27:10;;;;;;;;;;;;;;;8.14;100.00;103503.41;5086435;28;19920;-33
2022/01/21 11:29:38;;;;;;;;;;;;;;;8.10;100.00;103506.81;5083410;28;19920;-34
2022/01/21 11:32:06;;;;;;;;;;;;;;;8.05;100.00;103514.97;5088941;28;20011;-36
2022/01/21 11:34:34;;;;;;;;;;;;;;;8.01;100.00;103511.75;5084939;28;19920;-31
2022/01/21 11:37:04;;;;;;;;;;;;;;;7.99;100.00;103504.72;5086389;28;19926;-39
2022/01/21 11:39:32;;;;;;;;;;;;;;;7.93;100.00;103506.44;5084846;28;19943;-35
2022/01/21 11:42:01;;;;;;;;;;;;;;;7.86;100.00;103506.44;5086203;28;19927;-35
2022/01/21 11:44:30;;;;;;;;;;;;;;;7.81;100.00;103509.00;5087439;28;19956;-33
2022/01/21 11:47:15;;;;;;;;;;;;;;;7.79;100.00;103505.63;5084560;28;20293;-37
2022/01/21 11:49:44;;;;;;;;;;;;;;;7.78;100.00;103494.72;5075533;28;20285;-38
2022/01/21 11:52:18;;;;;;;;;;;;;;;7.77;100.00;103491.09;5088664;28;19947;-32
2022/01/21 11:54:46;;;;;;;;;;;;;;;7.74;100.00;103496.22;5081921;28;20296;-33
2022/01/21 11:57:15;;;;;;;;;;;;;;;7.69;100.00;103494.06;5082168;28;19928;-33
2022/01/21 11:59:51;;;;;;;;;;;;;;;7.66;100.00;103500.06;5078249;28;20010;-29
2022/01/21 12:02:22;;;;;;;;;;;;;;;7.62;100.00;103496.00;5082969;28;19921;-31
2022/01/21 12:04:51;;;;;;;;;;;;;;;7.61;100.00;103502.63;5078289;28;19927;-31
2022/01/21 12:07:40;;;;;;;;;;;;;;;7.56;100.00;103502.44;5084063;28;19935;-36
2022/01/21 12:10:09;;;;;;;;;;;;;;;7.51;100.00;103499.44;5078204;28;19924;-35
2022/01/21 12:12:57;;;;;;;;;;;;;;;7.46;100.00;103496.44;5082493;28;20512;-34
2022/01/21 12:15:51;;;;;;;;;;;;;;;7.41;100.00;103494.28;5085523;28;19924;-39
2022/01/21 12:18:58;;;;;;;;;;;;;;;7.36;100.00;103493.25;5086466;28;20309;-37
2022/01/21 12:21:26;;;;;;;;;;;;;;;7.29;100.00;103497.94;5082491;28;19924;-37
2022/01/21 12:23:59;;;;;;;;;;;;;;;7.25;100.00;103501.13;5076208;28;19960;-35
2022/01/21 12:26:29;;;;;;;;;;;;;;;7.22;100.00;103495.13;5080778;28;19920;-31
2022/01/21 12:29:27;;;;;;;;;;;;;;;7.19;100.00;103490.84;5080048;28;20281;-34
2022/01/21 12:32:01;;;;;;;;;;;;;;;7.16;100.00;103490.44;5021511;28;20016;-34
2022/01/21 12:34:49;;;;;;;;;;;;;;;7.12;100.00;103490.03;5076044;28;20017;-32
2022/01/21 12:37:24;;;;;;;;;;;;;;;7.10;100.00;103489.38;5080318;28;19939;-37
2022/01/21 12:39:51;;;;;;;;;;;;;;;7.09;100.00;103479.34;5087593;28;19935;-36
2022/01/21 12:42:27;;;;;;;;;;;;;;;7.07;100.00;103469.50;5080961;28;20262;-35
2022/01/21 12:44:55;;;;;;;;;;;;;;;7.05;100.00;103469.72;5086462;28;19920;-32
2022/01/21 12:47:30;;;;;;;;;;;;;;;7.03;100.00;103466.28;5081820;28;19924;-36
2022/01/21 12:49:59;;;;;;;;;;;;;;;7.02;100.00;103470.13;5087629;28;20293;-36
2022/01/21 12:53:18;;;;;;;;;;;;;;;7.02;100.00;103461.78;5045588;28;19927;-38
2022/01/21 12:56:02;;;;;;;;;;;;;;;7.03;100.00;103460.72;5078413;28;20279;-36
2022/01/21 12:58:33;;;;;;;;;;;;;;;7.04;100.00;103468.00;5078477;28;19920;-40
2022/01/21 13:01:01;;;;;;;;;;;;;;;7.04;100.00;103469.91;5087616;28;20407;-35
2022/01/21 13:03:33;;;;;;;;;;;;;;;7.04;100.00;103468.00;5077474;28;19920;-34
2022/01/21 13:06:07;;;;;;;;;;;;;;;7.04;100.00;103470.78;5087619;28;19920;-35
2022/01/21 13:08:38;;;;;;;;;;;;;;;7.05;100.00;103458.59;5059495;28;19931;-37
2022/01/21 13:11:19;;;;;;;;;;;;;;;7.06;100.00;103460.31;5087276;28;19924;-36
2022/01/21 13:13:52;;;;;;;;;;;;;;;7.05;100.00;103463.31;5078181;28;19920;-36
2022/01/21 13:16:24;;;;;;;;;;;;;;;7.07;100.00;103456.47;5086640;28;19920;-31
2022/01/21 13:18:58;;;;;;;;;;;;;;;7.09;100.00;103461.81;5078195;28;19931;-36
2022/01/21 13:21:26;;;;;;;;;;;;;;;7.09;100.00;103459.91;5087073;28;19920;-35
2022/01/21 13:24:02;;;;;;;;;;;;;;;7.10;100.00;103453.28;5078204;28;19975;-33
2022/01/21 13:26:35;;;;;;;;;;;;;;;7.09;100.00;103454.34;5076597;28;20024;-35
2022/01/21 13:29:04;;;;;;;;;;;;;;;7.09;100.00;103454.34;5079380;28;19927;-33